Randall, Arkansas
Current Conditions -  °F | °C
As of 6:53 PM on Sunday 21 Dec 2014 (Local Time) from KPBF Reporting Station
Scattered Clouds Scattered Clouds  
Wind Chill: 42°   Ceiling: Unl
Heat Index: 45°   Visibility: 10mi
Dew Point: 38°   Wind: 6mph
Humidity: 76%   Direction: 120°ESE
Pressure: 29.95"   Gusts: NA
Location:  33.947°N, 92.1633°W
Report Text: KPBF 220053Z AUTO 12005KT 10SM SCT075 07/03 A2995 RMK AO2 SLP143 T00720033
Loading
Personal Weather Stations






























Interactive Weather Map New forecast layout! Learn more

10-Day Weather Forecast

Advertisements
Track Severe Weather on mobile